sensor_id;sensor_type;location;lat;lon;timestamp;pressure;altitude;pressure_sealevel;temperature
76381;BMP280;65202;52.520;10.528;2022-12-18T00:01:28;102612.25;;;-6.39
76381;BMP280;65202;52.520;10.528;2022-12-18T00:04:02;102615.53;;;-6.05
76381;BMP280;65202;52.520;10.528;2022-12-18T00:06:32;102623.34;;;-5.89
76381;BMP280;65202;52.520;10.528;2022-12-18T00:09:00;102633.59;;;-6.21
76381;BMP280;65202;52.520;10.528;2022-12-18T00:11:30;102622.78;;;-6.57
76381;BMP280;65202;52.520;10.528;2022-12-18T00:13:59;102626.19;;;-6.73
76381;BMP280;65202;52.520;10.528;2022-12-18T00:16:28;102627.59;;;-6.85
76381;BMP280;65202;52.520;10.528;2022-12-18T00:18:59;102628.59;;;-6.62
76381;BMP280;65202;52.520;10.528;2022-12-18T00:21:28;102627.31;;;-6.42
76381;BMP280;65202;52.520;10.528;2022-12-18T00:23:57;102635.91;;;-7.12
76381;BMP280;65202;52.520;10.528;2022-12-18T00:26:30;102636.84;;;-6.78
76381;BMP280;65202;52.520;10.528;2022-12-18T00:29:01;102625.84;;;-6.86
76381;BMP280;65202;52.520;10.528;2022-12-18T00:31:32;102626.63;;;-6.70
76381;BMP280;65202;52.520;10.528;2022-12-18T00:34:00;102628.19;;;-6.36
76381;BMP280;65202;52.520;10.528;2022-12-18T00:36:30;102631.38;;;-6.48
76381;BMP280;65202;52.520;10.528;2022-12-18T00:39:02;102630.94;;;-6.51
76381;BMP280;65202;52.520;10.528;2022-12-18T00:41:30;102630.19;;;-6.39
76381;BMP280;65202;52.520;10.528;2022-12-18T00:44:18;102636.25;;;-6.48
76381;BMP280;65202;52.520;10.528;2022-12-18T00:46:46;102623.66;;;-6.56
76381;BMP280;65202;52.520;10.528;2022-12-18T00:49:17;102634.31;;;-6.27
76381;BMP280;65202;52.520;10.528;2022-12-18T00:51:46;102640.56;;;-6.29
76381;BMP280;65202;52.520;10.528;2022-12-18T00:54:14;102646.00;;;-6.48
76381;BMP280;65202;52.520;10.528;2022-12-18T00:56:42;102649.50;;;-6.46
76381;BMP280;65202;52.520;10.528;2022-12-18T00:59:17;102656.31;;;-6.67
76381;BMP280;65202;52.520;10.528;2022-12-18T01:01:45;102661.38;;;-7.21
76381;BMP280;65202;52.520;10.528;2022-12-18T01:04:13;102661.16;;;-7.28
76381;BMP280;65202;52.520;10.528;2022-12-18T01:06:41;102662.13;;;-7.55
76381;BMP280;65202;52.520;10.528;2022-12-18T01:09:08;102666.09;;;-7.50
76381;BMP280;65202;52.520;10.528;2022-12-18T01:11:36;102667.16;;;-6.70
76381;BMP280;65202;52.520;10.528;2022-12-18T01:14:03;102666.38;;;-6.92
76381;BMP280;65202;52.520;10.528;2022-12-18T01:16:30;102678.28;;;-7.72
76381;BMP280;65202;52.520;10.528;2022-12-18T01:18:58;102662.34;;;-7.48
76381;BMP280;65202;52.520;10.528;2022-12-18T01:21:25;102671.09;;;-7.10
76381;BMP280;65202;52.520;10.528;2022-12-18T01:23:54;102662.66;;;-6.56
76381;BMP280;65202;52.520;10.528;2022-12-18T01:26:24;102672.41;;;-7.07
76381;BMP280;65202;52.520;10.528;2022-12-18T01:28:54;102675.66;;;-6.90
76381;BMP280;65202;52.520;10.528;2022-12-18T01:33:51;102677.94;;;-7.13
76381;BMP280;65202;52.520;10.528;2022-12-18T01:36:31;102688.13;;;-7.16
76381;BMP280;65202;52.520;10.528;2022-12-18T01:39:04;102688.88;;;-7.55
76381;BMP280;65202;52.520;10.528;2022-12-18T01:41:34;102677.59;;;-7.38
76381;BMP280;65202;52.520;10.528;2022-12-18T01:47:29;102675.91;;;-6.99
76381;BMP280;65202;52.520;10.528;2022-12-18T01:50:13;102669.19;;;-6.79
76381;BMP280;65202;52.520;10.528;2022-12-18T01:52:45;102678.13;;;-6.95
76381;BMP280;65202;52.520;10.528;2022-12-18T01:55:18;102676.19;;;-7.14
76381;BMP280;65202;52.520;10.528;2022-12-18T01:57:52;102668.25;;;-7.24
76381;BMP280;65202;52.520;10.528;2022-12-18T02:00:22;102662.69;;;-7.07
76381;BMP280;65202;52.520;10.528;2022-12-18T02:02:51;102663.69;;;-7.55
76381;BMP280;65202;52.520;10.528;2022-12-18T02:05:29;102674.50;;;-7.81
76381;BMP280;65202;52.520;10.528;2022-12-18T02:09:11;102678.88;;;-7.35
76381;BMP280;65202;52.520;10.528;2022-12-18T02:17:23;102684.91;;;-7.87
76381;BMP280;65202;52.520;10.528;2022-12-18T02:20:30;102688.00;;;-7.55
76381;BMP280;65202;52.520;10.528;2022-12-18T02:23:31;102684.03;;;-7.60
76381;BMP280;65202;52.520;10.528;2022-12-18T02:26:20;102684.41;;;-7.30
76381;BMP280;65202;52.520;10.528;2022-12-18T02:29:22;102675.88;;;-6.88
76381;BMP280;65202;52.520;10.528;2022-12-18T02:31:57;102684.59;;;-7.12
76381;BMP280;65202;52.520;10.528;2022-12-18T02:34:30;102683.75;;;-7.35
76381;BMP280;65202;52.520;10.528;2022-12-18T02:37:02;102678.13;;;-6.95
76381;BMP280;65202;52.520;10.528;2022-12-18T02:39:34;102679.88;;;-6.94
76381;BMP280;65202;52.520;10.528;2022-12-18T02:42:03;102677.72;;;-6.59
76381;BMP280;65202;52.520;10.528;2022-12-18T02:44:41;102690.44;;;-6.78
76381;BMP280;65202;52.520;10.528;2022-12-18T02:47:12;102688.66;;;-7.46
76381;BMP280;65202;52.520;10.528;2022-12-18T02:57:57;102691.97;;;-7.56
76381;BMP280;65202;52.520;10.528;2022-12-18T03:00:39;102679.94;;;-7.16
76381;BMP280;65202;52.520;10.528;2022-12-18T03:03:27;102688.00;;;-7.61
76381;BMP280;65202;52.520;10.528;2022-12-18T03:06:30;102687.13;;;-7.50
76381;BMP280;65202;52.520;10.528;2022-12-18T03:09:13;102678.72;;;-7.69
76381;BMP280;65202;52.520;10.528;2022-12-18T03:11:47;102682.59;;;-7.15
76381;BMP280;65202;52.520;10.528;2022-12-18T03:14:41;102683.09;;;-7.39
76381;BMP280;65202;52.520;10.528;2022-12-18T03:17:14;102685.06;;;-7.31
76381;BMP280;65202;52.520;10.528;2022-12-18T03:19:46;102692.59;;;-7.30
76381;BMP280;65202;52.520;10.528;2022-12-18T03:22:16;102689.28;;;-7.41
76381;BMP280;65202;52.520;10.528;2022-12-18T03:24:45;102691.31;;;-7.44
76381;BMP280;65202;52.520;10.528;2022-12-18T03:27:18;102680.69;;;-7.77
76381;BMP280;65202;52.520;10.528;2022-12-18T03:29:53;102686.69;;;-7.92
76381;BMP280;65202;52.520;10.528;2022-12-18T03:32:44;102690.66;;;-7.87
76381;BMP280;65202;52.520;10.528;2022-12-18T03:35:36;102685.75;;;-7.48
76381;BMP280;65202;52.520;10.528;2022-12-18T03:38:07;102677.38;;;-7.45
76381;BMP280;65202;52.520;10.528;2022-12-18T03:40:43;102676.50;;;-7.67
76381;BMP280;65202;52.520;10.528;2022-12-18T03:49:47;102682.72;;;-7.97
76381;BMP280;65202;52.520;10.528;2022-12-18T03:52:27;102696.47;;;-8.72
76381;BMP280;65202;52.520;10.528;2022-12-18T03:55:01;102695.59;;;-8.72
76381;BMP280;65202;52.520;10.528;2022-12-18T03:57:31;102696.03;;;-8.75
76381;BMP280;65202;52.520;10.528;2022-12-18T04:00:04;102698.81;;;-8.94
76381;BMP280;65202;52.520;10.528;2022-12-18T04:02:39;102703.97;;;-8.81
76381;BMP280;65202;52.520;10.528;2022-12-18T04:05:12;102696.69;;;-8.76
76381;BMP280;65202;52.520;10.528;2022-12-18T04:07:42;102691.66;;;-8.67
76381;BMP280;65202;52.520;10.528;2022-12-18T04:10:12;102695.69;;;-8.98
76381;BMP280;65202;52.520;10.528;2022-12-18T04:12:41;102696.53;;;-9.14
76381;BMP280;65202;52.520;10.528;2022-12-18T04:15:10;102683.28;;;-9.16
76381;BMP280;65202;52.520;10.528;2022-12-18T04:17:48;102700.19;;;-8.85
76381;BMP280;65202;52.520;10.528;2022-12-18T04:20:17;102701.53;;;-8.87
76381;BMP280;65202;52.520;10.528;2022-12-18T04:22:44;102693.66;;;-8.64
76381;BMP280;65202;52.520;10.528;2022-12-18T04:25:12;102689.78;;;-8.14
76381;BMP280;65202;52.520;10.528;2022-12-18T04:27:40;102701.13;;;-8.73
76381;BMP280;65202;52.520;10.528;2022-12-18T04:30:08;102705.31;;;-9.15
76381;BMP280;65202;52.520;10.528;2022-12-18T04:32:35;102706.00;;;-9.16
76381;BMP280;65202;52.520;10.528;2022-12-18T04:35:03;102717.16;;;-9.27
76381;BMP280;65202;52.520;10.528;2022-12-18T04:37:33;102704.81;;;-8.92
76381;BMP280;65202;52.520;10.528;2022-12-18T04:40:00;102705.22;;;-9.31
76381;BMP280;65202;52.520;10.528;2022-12-18T04:42:27;102711.88;;;-9.30
76381;BMP280;65202;52.520;10.528;2022-12-18T04:44:54;102708.94;;;-9.38
76381;BMP280;65202;52.520;10.528;2022-12-18T04:47:22;102711.34;;;-9.38
76381;BMP280;65202;52.520;10.528;2022-12-18T04:49:49;102706.47;;;-9.44
76381;BMP280;65202;52.520;10.528;2022-12-18T04:52:16;102704.06;;;-9.70
76381;BMP280;65202;52.520;10.528;2022-12-18T04:54:43;102694.69;;;-9.26
76381;BMP280;65202;52.520;10.528;2022-12-18T04:57:10;102692.44;;;-9.35
76381;BMP280;65202;52.520;10.528;2022-12-18T04:59:37;102687.69;;;-9.14
76381;BMP280;65202;52.520;10.528;2022-12-18T05:02:05;102688.69;;;-8.86
76381;BMP280;65202;52.520;10.528;2022-12-18T05:04:32;102691.25;;;-9.06
76381;BMP280;65202;52.520;10.528;2022-12-18T05:07:00;102678.97;;;-8.91
76381;BMP280;65202;52.520;10.528;2022-12-18T05:09:27;102668.03;;;-8.62
76381;BMP280;65202;52.520;10.528;2022-12-18T05:11:54;102671.72;;;-8.86
76381;BMP280;65202;52.520;10.528;2022-12-18T05:14:21;102670.13;;;-8.91
76381;BMP280;65202;52.520;10.528;2022-12-18T05:16:49;102676.03;;;-9.11
76381;BMP280;65202;52.520;10.528;2022-12-18T05:19:16;102674.63;;;-8.72
76381;BMP280;65202;52.520;10.528;2022-12-18T05:21:43;102676.44;;;-8.60
76381;BMP280;65202;52.520;10.528;2022-12-18T05:24:11;102673.25;;;-8.86
76381;BMP280;65202;52.520;10.528;2022-12-18T05:26:39;102678.84;;;-9.19
76381;BMP280;65202;52.520;10.528;2022-12-18T05:29:07;102674.13;;;-8.86
76381;BMP280;65202;52.520;10.528;2022-12-18T05:31:34;102668.31;;;-8.33
76381;BMP280;65202;52.520;10.528;2022-12-18T05:34:05;102675.16;;;-8.36
76381;BMP280;65202;52.520;10.528;2022-12-18T05:36:33;102679.94;;;-8.69
76381;BMP280;65202;52.520;10.528;2022-12-18T05:39:00;102678.66;;;-8.62
76381;BMP280;65202;52.520;10.528;2022-12-18T05:41:27;102681.72;;;-8.57
76381;BMP280;65202;52.520;10.528;2022-12-18T05:43:55;102701.31;;;-8.77
76381;BMP280;65202;52.520;10.528;2022-12-18T05:46:22;102694.56;;;-8.58
76381;BMP280;65202;52.520;10.528;2022-12-18T05:48:51;102702.94;;;-9.09
76381;BMP280;65202;52.520;10.528;2022-12-18T05:51:20;102689.78;;;-8.25
76381;BMP280;65202;52.520;10.528;2022-12-18T05:53:48;102707.31;;;-9.18
76381;BMP280;65202;52.520;10.528;2022-12-18T05:56:20;102717.66;;;-9.19
76381;BMP280;65202;52.520;10.528;2022-12-18T05:58:51;102729.88;;;-9.44
76381;BMP280;65202;52.520;10.528;2022-12-18T06:01:23;102727.75;;;-8.37
76381;BMP280;65202;52.520;10.528;2022-12-18T06:03:52;102731.69;;;-8.48
76381;BMP280;65202;52.520;10.528;2022-12-18T06:06:22;102742.28;;;-8.42
76381;BMP280;65202;52.520;10.528;2022-12-18T06:08:51;102741.44;;;-8.37
76381;BMP280;65202;52.520;10.528;2022-12-18T06:11:22;102740.56;;;-8.38
76381;BMP280;65202;52.520;10.528;2022-12-18T06:13:52;102739.72;;;-8.22
76381;BMP280;65202;52.520;10.528;2022-12-18T06:16:26;102744.31;;;-8.34
76381;BMP280;65202;52.520;10.528;2022-12-18T06:18:58;102751.78;;;-8.38
76381;BMP280;65202;52.520;10.528;2022-12-18T06:21:27;102762.09;;;-8.61
76381;BMP280;65202;52.520;10.528;2022-12-18T06:23:55;102754.44;;;-8.42
76381;BMP280;65202;52.520;10.528;2022-12-18T06:26:23;102746.00;;;-8.55
76381;BMP280;65202;52.520;10.528;2022-12-18T06:28:54;102745.22;;;-8.87
76381;BMP280;65202;52.520;10.528;2022-12-18T06:31:22;102764.38;;;-8.94
76381;BMP280;65202;52.520;10.528;2022-12-18T06:33:49;102768.28;;;-8.63
76381;BMP280;65202;52.520;10.528;2022-12-18T06:36:17;102773.97;;;-8.73
76381;BMP280;65202;52.520;10.528;2022-12-18T06:38:44;102772.19;;;-9.11
76381;BMP280;65202;52.520;10.528;2022-12-18T06:41:17;102769.16;;;-9.36
76381;BMP280;65202;52.520;10.528;2022-12-18T06:43:46;102768.06;;;-9.01
76381;BMP280;65202;52.520;10.528;2022-12-18T06:46:13;102759.94;;;-9.33
76381;BMP280;65202;52.520;10.528;2022-12-18T06:48:41;102766.88;;;-9.45
76381;BMP280;65202;52.520;10.528;2022-12-18T06:51:09;102762.03;;;-9.45
76381;BMP280;65202;52.520;10.528;2022-12-18T06:53:36;102773.41;;;-9.81
76381;BMP280;65202;52.520;10.528;2022-12-18T06:56:06;102761.41;;;-9.44
76381;BMP280;65202;52.520;10.528;2022-12-18T06:58:38;102778.31;;;-9.50
76381;BMP280;65202;52.520;10.528;2022-12-18T07:01:08;102771.66;;;-9.51
76381;BMP280;65202;52.520;10.528;2022-12-18T07:03:38;102778.16;;;-9.66
76381;BMP280;65202;52.520;10.528;2022-12-18T07:06:15;102769.44;;;-9.29
76381;BMP280;65202;52.520;10.528;2022-12-18T07:08:45;102773.78;;;-9.37
76381;BMP280;65202;52.520;10.528;2022-12-18T07:11:14;102777.44;;;-9.50
76381;BMP280;65202;52.520;10.528;2022-12-18T07:13:41;102782.91;;;-9.77
76381;BMP280;65202;52.520;10.528;2022-12-18T07:16:12;102776.63;;;-9.40
76381;BMP280;65202;52.520;10.528;2022-12-18T07:18:50;102773.56;;;-9.39
76381;BMP280;65202;52.520;10.528;2022-12-18T07:21:20;102786.38;;;-9.60
76381;BMP280;65202;52.520;10.528;2022-12-18T07:23:48;102795.06;;;-9.51
76381;BMP280;65202;52.520;10.528;2022-12-18T07:26:18;102794.84;;;-9.22
76381;BMP280;65202;52.520;10.528;2022-12-18T07:28:47;102814.72;;;-8.87
76381;BMP280;65202;52.520;10.528;2022-12-18T07:31:18;102815.75;;;-9.02
76381;BMP280;65202;52.520;10.528;2022-12-18T07:33:49;102826.59;;;-9.26
76381;BMP280;65202;52.520;10.528;2022-12-18T07:36:18;102836.84;;;-9.63
76381;BMP280;65202;52.520;10.528;2022-12-18T07:38:49;102840.09;;;-9.68
76381;BMP280;65202;52.520;10.528;2022-12-18T07:41:18;102828.81;;;-9.73
76381;BMP280;65202;52.520;10.528;2022-12-18T07:43:46;102834.22;;;-9.59
76381;BMP280;65202;52.520;10.528;2022-12-18T07:46:14;102829.13;;;-9.40
76381;BMP280;65202;52.520;10.528;2022-12-18T07:48:44;102824.53;;;-9.59
76381;BMP280;65202;52.520;10.528;2022-12-18T07:51:16;102827.72;;;-9.49
76381;BMP280;65202;52.520;10.528;2022-12-18T07:53:45;102830.09;;;-9.29
76381;BMP280;65202;52.520;10.528;2022-12-18T07:56:17;102839.03;;;-9.39
76381;BMP280;65202;52.520;10.528;2022-12-18T07:58:54;102829.06;;;-9.20
76381;BMP280;65202;52.520;10.528;2022-12-18T08:01:22;102849.81;;;-9.42
76381;BMP280;65202;52.520;10.528;2022-12-18T08:03:50;102852.03;;;-9.38
76381;BMP280;65202;52.520;10.528;2022-12-18T08:06:18;102851.03;;;-9.55
76381;BMP280;65202;52.520;10.528;2022-12-18T08:08:54;102844.50;;;-9.45
76381;BMP280;65202;52.520;10.528;2022-12-18T08:11:24;102843.56;;;-9.51
76381;BMP280;65202;52.520;10.528;2022-12-18T08:13:53;102847.44;;;-9.37
76381;BMP280;65202;52.520;10.528;2022-12-18T08:16:21;102830.63;;;-9.15
76381;BMP280;65202;52.520;10.528;2022-12-18T08:18:49;102819.00;;;-9.07
76381;BMP280;65202;52.520;10.528;2022-12-18T08:21:21;102820.59;;;-9.02
76381;BMP280;65202;52.520;10.528;2022-12-18T08:23:51;102818.59;;;-9.04
76381;BMP280;65202;52.520;10.528;2022-12-18T08:26:21;102820.31;;;-8.72
76381;BMP280;65202;52.520;10.528;2022-12-18T08:28:49;102811.00;;;-8.38
76381;BMP280;65202;52.520;10.528;2022-12-18T08:31:18;102826.09;;;-8.66
76381;BMP280;65202;52.520;10.528;2022-12-18T08:33:50;102812.75;;;-8.42
76381;BMP280;65202;52.520;10.528;2022-12-18T08:36:19;102814.09;;;-8.33
76381;BMP280;65202;52.520;10.528;2022-12-18T08:38:47;102808.66;;;-8.10
76381;BMP280;65202;52.520;10.528;2022-12-18T08:41:16;102809.75;;;-8.09
76381;BMP280;65202;52.520;10.528;2022-12-18T08:43:44;102793.91;;;-7.52
76381;BMP280;65202;52.520;10.528;2022-12-18T08:46:38;102790.75;;;-6.75
76381;BMP280;65202;52.520;10.528;2022-12-18T08:49:09;102779.25;;;-6.25
76381;BMP280;65202;52.520;10.528;2022-12-18T08:51:38;102780.69;;;-5.17
76381;BMP280;65202;52.520;10.528;2022-12-18T08:54:06;102773.16;;;-5.19
76381;BMP280;65202;52.520;10.528;2022-12-18T08:56:34;102761.78;;;-4.54
76381;BMP280;65202;52.520;10.528;2022-12-18T08:59:01;102752.78;;;-3.70
76381;BMP280;65202;52.520;10.528;2022-12-18T09:01:28;102751.84;;;-3.52
76381;BMP280;65202;52.520;10.528;2022-12-18T09:03:56;102737.22;;;-2.83
76381;BMP280;65202;52.520;10.528;2022-12-18T09:06:23;102738.72;;;-3.03
76381;BMP280;65202;52.520;10.528;2022-12-18T09:08:50;102737.53;;;-2.43
76381;BMP280;65202;52.520;10.528;2022-12-18T09:11:23;102745.81;;;-3.36
76381;BMP280;65202;52.520;10.528;2022-12-18T09:13:53;102724.50;;;-1.19
76381;BMP280;65202;52.520;10.528;2022-12-18T09:16:23;102725.69;;;-2.01
76381;BMP280;65202;52.520;10.528;2022-12-18T09:18:58;102723.47;;;-1.14
76381;BMP280;65202;52.520;10.528;2022-12-18T09:21:29;102721.59;;;-0.56
76381;BMP280;65202;52.520;10.528;2022-12-18T09:24:03;102725.34;;;-1.52
76381;BMP280;65202;52.520;10.528;2022-12-18T09:26:35;102731.59;;;-2.06
76381;BMP280;65202;52.520;10.528;2022-12-18T09:29:03;102711.91;;;-1.15
76381;BMP280;65202;52.520;10.528;2022-12-18T09:31:30;102703.75;;;-0.88
76381;BMP280;65202;52.520;10.528;2022-12-18T09:33:58;102701.06;;;-1.03
76381;BMP280;65202;52.520;10.528;2022-12-18T09:36:25;102705.28;;;-0.48
76381;BMP280;65202;52.520;10.528;2022-12-18T09:38:52;102706.69;;;-1.37
76381;BMP280;65202;52.520;10.528;2022-12-18T09:41:40;102709.47;;;-0.61
76381;BMP280;65202;52.520;10.528;2022-12-18T09:44:21;102718.78;;;-2.74
76381;BMP280;65202;52.520;10.528;2022-12-18T09:49:48;102698.09;;;-2.76
76381;BMP280;65202;52.520;10.528;2022-12-18T09:52:27;102709.44;;;-3.46
76381;BMP280;65202;52.520;10.528;2022-12-18T09:57:55;102703.75;;;-3.27
76381;BMP280;65202;52.520;10.528;2022-12-18T10:00:28;102706.59;;;-3.61
76381;BMP280;65202;52.520;10.528;2022-12-18T10:03:09;102706.97;;;-3.71
76381;BMP280;65202;52.520;10.528;2022-12-18T10:05:58;102704.41;;;-3.90
76381;BMP280;65202;52.520;10.528;2022-12-18T10:14:23;102698.91;;;-3.94
76381;BMP280;65202;52.520;10.528;2022-12-18T10:19:59;102719.78;;;-4.21
76381;BMP280;65202;52.520;10.528;2022-12-18T10:23:03;102718.19;;;-4.21
76381;BMP280;65202;52.520;10.528;2022-12-18T10:28:20;102734.16;;;-4.17
76381;BMP280;65202;52.520;10.528;2022-12-18T10:30:48;102743.91;;;-4.30
76381;BMP280;65202;52.520;10.528;2022-12-18T10:33:19;102749.19;;;-4.09
76381;BMP280;65202;52.520;10.528;2022-12-18T10:35:50;102756.69;;;-4.38
76381;BMP280;65202;52.520;10.528;2022-12-18T10:41:04;102755.59;;;-4.39
76381;BMP280;65202;52.520;10.528;2022-12-18T10:44:14;102745.53;;;-4.18
76381;BMP280;65202;52.520;10.528;2022-12-18T10:46:46;102738.72;;;-4.26
76381;BMP280;65202;52.520;10.528;2022-12-18T10:49:25;102724.78;;;-3.84
76381;BMP280;65202;52.520;10.528;2022-12-18T10:52:15;102725.66;;;-4.14
76381;BMP280;65202;52.520;10.528;2022-12-18T10:54:51;102730.19;;;-4.04
76381;BMP280;65202;52.520;10.528;2022-12-18T10:57:37;102723.00;;;-3.85
76381;BMP280;65202;52.520;10.528;2022-12-18T11:00:23;102721.06;;;-3.75
76381;BMP280;65202;52.520;10.528;2022-12-18T11:02:56;102721.66;;;-3.71
76381;BMP280;65202;52.520;10.528;2022-12-18T11:05:33;102723.81;;;-3.79
76381;BMP280;65202;52.520;10.528;2022-12-18T11:08:03;102717.47;;;-4.02
76381;BMP280;65202;52.520;10.528;2022-12-18T11:10:36;102702.84;;;-3.77
76381;BMP280;65202;52.520;10.528;2022-12-18T11:13:23;102697.56;;;-3.80
76381;BMP280;65202;52.520;10.528;2022-12-18T11:15:53;102697.72;;;-3.91
76381;BMP280;65202;52.520;10.528;2022-12-18T11:18:25;102691.97;;;-3.67
76381;BMP280;65202;52.520;10.528;2022-12-18T11:21:09;102693.09;;;-3.52
76381;BMP280;65202;52.520;10.528;2022-12-18T11:23:49;102684.25;;;-3.70
76381;BMP280;65202;52.520;10.528;2022-12-18T11:26:18;102684.75;;;-3.60
76381;BMP280;65202;52.520;10.528;2022-12-18T11:28:50;102673.28;;;-3.66
76381;BMP280;65202;52.520;10.528;2022-12-18T11:34:11;102674.84;;;-3.79
76381;BMP280;65202;52.520;10.528;2022-12-18T11:36:58;102683.25;;;-3.77
76381;BMP280;65202;52.520;10.528;2022-12-18T11:39:31;102686.38;;;-3.78
76381;BMP280;65202;52.520;10.528;2022-12-18T11:47:59;102684.22;;;-3.82
76381;BMP280;65202;52.520;10.528;2022-12-18T11:50:38;102697.78;;;-3.66
76381;BMP280;65202;52.520;10.528;2022-12-18T11:53:13;102703.66;;;-3.71
76381;BMP280;65202;52.520;10.528;2022-12-18T11:58:46;102680.47;;;-3.55
76381;BMP280;65202;52.520;10.528;2022-12-18T12:08:01;102674.84;;;-3.54
76381;BMP280;65202;52.520;10.528;2022-12-18T12:18:56;102640.81;;;-3.09
76381;BMP280;65202;52.520;10.528;2022-12-18T12:31:08;102622.69;;;-2.52
76381;BMP280;65202;52.520;10.528;2022-12-18T12:39:38;102604.03;;;-2.19
76381;BMP280;65202;52.520;10.528;2022-12-18T12:42:31;102601.19;;;-2.22
76381;BMP280;65202;52.520;10.528;2022-12-18T12:46:00;102579.59;;;-2.05
76381;BMP280;65202;52.520;10.528;2022-12-18T12:48:49;102592.47;;;-1.93
76381;BMP280;65202;52.520;10.528;2022-12-18T12:51:23;102582.31;;;-1.89
76381;BMP280;65202;52.520;10.528;2022-12-18T12:53:54;102576.63;;;-2.02
76381;BMP280;65202;52.520;10.528;2022-12-18T12:56:30;102570.56;;;-2.18
76381;BMP280;65202;52.520;10.528;2022-12-18T12:59:24;102574.03;;;-1.97
76381;BMP280;65202;52.520;10.528;2022-12-18T13:07:55;102556.53;;;-2.19
76381;BMP280;65202;52.520;10.528;2022-12-18T13:10:39;102554.41;;;-2.23
76381;BMP280;65202;52.520;10.528;2022-12-18T13:13:12;102550.00;;;-2.26
76381;BMP280;65202;52.520;10.528;2022-12-18T13:16:06;102542.44;;;-2.27
76381;BMP280;65202;52.520;10.528;2022-12-18T13:18:35;102542.44;;;-2.27
76381;BMP280;65202;52.520;10.528;2022-12-18T13:21:25;102528.69;;;-2.39
76381;BMP280;65202;52.520;10.528;2022-12-18T13:23:56;102520.53;;;-2.52
76381;BMP280;65202;52.520;10.528;2022-12-18T13:26:40;102526.63;;;-2.55
76381;BMP280;65202;52.520;10.528;2022-12-18T13:29:08;102533.44;;;-2.60
76381;BMP280;65202;52.520;10.528;2022-12-18T13:34:15;102523.91;;;-2.71
76381;BMP280;65202;52.520;10.528;2022-12-18T13:36:55;102541.50;;;-2.61
76381;BMP280;65202;52.520;10.528;2022-12-18T13:39:33;102544.25;;;-2.65
76381;BMP280;65202;52.520;10.528;2022-12-18T13:44:40;102547.03;;;-2.69
76381;BMP280;65202;52.520;10.528;2022-12-18T13:47:46;102535.72;;;-2.81
76381;BMP280;65202;52.520;10.528;2022-12-18T13:50:24;102526.28;;;-2.78
76381;BMP280;65202;52.520;10.528;2022-12-18T13:53:03;102527.59;;;-2.87
76381;BMP280;65202;52.520;10.528;2022-12-18T13:55:32;102530.44;;;-2.84
76381;BMP280;65202;52.520;10.528;2022-12-18T13:58:04;102530.94;;;-2.86
76381;BMP280;65202;52.520;10.528;2022-12-18T14:00:33;102524.09;;;-2.89
76381;BMP280;65202;52.520;10.528;2022-12-18T14:03:01;102529.34;;;-2.86
76381;BMP280;65202;52.520;10.528;2022-12-18T14:05:30;102520.56;;;-2.91
76381;BMP280;65202;52.520;10.528;2022-12-18T14:08:03;102524.69;;;-2.97
76381;BMP280;65202;52.520;10.528;2022-12-18T14:10:35;102538.66;;;-2.83
76381;BMP280;65202;52.520;10.528;2022-12-18T14:13:41;102530.69;;;-2.95
76381;BMP280;65202;52.520;10.528;2022-12-18T14:16:13;102526.88;;;-2.93
76381;BMP280;65202;52.520;10.528;2022-12-18T14:18:50;102534.59;;;-2.90
76381;BMP280;65202;52.520;10.528;2022-12-18T14:21:38;102536.44;;;-2.94
76381;BMP280;65202;52.520;10.528;2022-12-18T14:24:14;102524.34;;;-3.00
76381;BMP280;65202;52.520;10.528;2022-12-18T14:26:47;102520.88;;;-2.95
76381;BMP280;65202;52.520;10.528;2022-12-18T14:29:26;102516.63;;;-3.03
76381;BMP280;65202;52.520;10.528;2022-12-18T14:34:44;102516.34;;;-2.92
76381;BMP280;65202;52.520;10.528;2022-12-18T14:37:20;102500.16;;;-3.04
76381;BMP280;65202;52.520;10.528;2022-12-18T14:39:56;102501.84;;;-3.10
76381;BMP280;65202;52.520;10.528;2022-12-18T14:42:28;102502.41;;;-3.05
76381;BMP280;65202;52.520;10.528;2022-12-18T14:48:15;102517.41;;;-3.09
76381;BMP280;65202;52.520;10.528;2022-12-18T14:53:51;102519.13;;;-3.15
76381;BMP280;65202;52.520;10.528;2022-12-18T14:56:32;102521.38;;;-3.16
76381;BMP280;65202;52.520;10.528;2022-12-18T14:59:19;102507.28;;;-3.24
76381;BMP280;65202;52.520;10.528;2022-12-18T15:04:47;102502.47;;;-3.17
76381;BMP280;65202;52.520;10.528;2022-12-18T15:07:26;102505.63;;;-3.31
76381;BMP280;65202;52.520;10.528;2022-12-18T15:26:11;102467.44;;;-3.55
76381;BMP280;65202;52.520;10.528;2022-12-18T15:31:23;102452.13;;;-3.28
76381;BMP280;65202;52.520;10.528;2022-12-18T15:36:23;102451.66;;;-3.57
76381;BMP280;65202;52.520;10.528;2022-12-18T15:38:54;102446.44;;;-3.53
76381;BMP280;65202;52.520;10.528;2022-12-18T15:41:34;102435.00;;;-3.60
76381;BMP280;65202;52.520;10.528;2022-12-18T15:44:14;102437.06;;;-3.50
76381;BMP280;65202;52.520;10.528;2022-12-18T15:46:48;102443.81;;;-3.55
76381;BMP280;65202;52.520;10.528;2022-12-18T15:49:15;102442.94;;;-3.55
76381;BMP280;65202;52.520;10.528;2022-12-18T15:51:42;102441.94;;;-3.50
76381;BMP280;65202;52.520;10.528;2022-12-18T15:54:13;102444.63;;;-3.61
76381;BMP280;65202;52.520;10.528;2022-12-18T15:56:42;102446.25;;;-3.55
76381;BMP280;65202;52.520;10.528;2022-12-18T15:59:28;102453.25;;;-3.58
76381;BMP280;65202;52.520;10.528;2022-12-18T16:01:56;102444.19;;;-3.52
76381;BMP280;65202;52.520;10.528;2022-12-18T16:04:23;102441.19;;;-3.56
76381;BMP280;65202;52.520;10.528;2022-12-18T16:06:52;102428.75;;;-3.58
76381;BMP280;65202;52.520;10.528;2022-12-18T16:09:39;102425.34;;;-3.65
76381;BMP280;65202;52.520;10.528;2022-12-18T16:12:14;102418.19;;;-3.44
76381;BMP280;65202;52.520;10.528;2022-12-18T16:14:43;102404.56;;;-3.62
76381;BMP280;65202;52.520;10.528;2022-12-18T16:17:12;102400.94;;;-3.58
76381;BMP280;65202;52.520;10.528;2022-12-18T16:19:42;102404.00;;;-3.66
76381;BMP280;65202;52.520;10.528;2022-12-18T16:22:21;102403.63;;;-3.69
76381;BMP280;65202;52.520;10.528;2022-12-18T16:24:51;102400.16;;;-3.64
76381;BMP280;65202;52.520;10.528;2022-12-18T16:27:20;102388.06;;;-3.70
76381;BMP280;65202;52.520;10.528;2022-12-18T16:29:49;102385.41;;;-3.71
76381;BMP280;65202;52.520;10.528;2022-12-18T16:32:19;102382.59;;;-3.74